createdAt,value
2017-07-01T00:00:34.496Z,0
2017-07-01T00:01:35.054Z,0
2017-07-01T00:02:34.423Z,0
2017-07-01T00:03:34.903Z,0
2017-07-01T00:04:34.571Z,0
2017-07-01T00:05:34.760Z,0
2017-07-01T00:06:34.799Z,0
2017-07-01T00:07:34.766Z,0
2017-07-01T00:08:34.911Z,0
2017-07-01T00:09:34.641Z,0
2017-07-01T00:10:34.678Z,0
2017-07-01T00:11:34.940Z,0
2017-07-01T00:12:34.767Z,0
2017-07-01T00:13:35.064Z,0
2017-07-01T00:14:34.935Z,0
2017-07-01T00:15:34.853Z,0
2017-07-01T00:16:34.872Z,0
2017-07-01T00:17:34.949Z,0
2017-07-01T00:18:34.958Z,0
2017-07-01T00:19:34.992Z,0
2017-07-01T00:20:34.982Z,0
2017-07-01T00:21:35.006Z,0
2017-07-01T00:22:35.080Z,0
2017-07-01T00:23:35.148Z,0
2017-07-01T00:24:44.264Z,0
2017-07-01T00:25:35.163Z,0
2017-07-01T00:26:35.489Z,0
2017-07-01T00:27:35.441Z,0
2017-07-01T00:28:35.517Z,0
2017-07-01T00:29:35.378Z,0
2017-07-01T00:30:35.358Z,0
2017-07-01T00:31:35.447Z,0
2017-07-01T00:32:35.487Z,0
2017-07-01T00:33:35.468Z,0
2017-07-01T00:34:35.510Z,0
2017-07-01T00:35:35.506Z,0
2017-07-01T00:36:35.543Z,0
2017-07-01T00:37:35.574Z,0
2017-07-01T00:38:35.728Z,0
2017-07-01T00:39:35.642Z,0
2017-07-01T00:40:36.350Z,0
2017-07-01T00:41:35.696Z,0
2017-07-01T00:42:35.763Z,0
2017-07-01T00:43:35.769Z,0
2017-07-01T00:44:36.036Z,0
2017-07-01T00:45:35.942Z,0
2017-07-01T00:46:35.978Z,0
2017-07-01T00:47:35.944Z,0
2017-07-01T00:48:36.182Z,0
2017-07-01T00:49:36.023Z,0
2017-07-01T00:50:36.221Z,0
2017-07-01T00:51:36.077Z,0
2017-07-01T00:52:36.048Z,0
2017-07-01T00:53:36.341Z,0
2017-07-01T00:54:36.260Z,0
2017-07-01T00:55:36.219Z,0
2017-07-01T00:56:36.432Z,0
2017-07-01T00:57:36.627Z,0
2017-07-01T00:58:36.594Z,0
2017-07-01T00:59:36.441Z,0
2017-07-01T01:00:36.431Z,0
2017-07-01T01:01:36.625Z,0
2017-07-01T01:02:36.636Z,0
2017-07-01T01:03:37.321Z,0
2017-07-01T01:04:36.621Z,0
2017-07-01T01:05:36.509Z,0
2017-07-01T01:06:36.607Z,0
2017-07-01T01:07:36.905Z,0
2017-07-01T01:08:36.769Z,0
2017-07-01T01:09:36.626Z,0
2017-07-01T01:10:36.666Z,0
2017-07-01T01:11:36.713Z,0
2017-07-01T01:12:36.754Z,0
2017-07-01T01:13:36.973Z,0
2017-07-01T01:14:36.805Z,0
2017-07-01T01:15:36.838Z,0
2017-07-01T01:16:36.874Z,0
2017-07-01T01:17:36.897Z,0
2017-07-01T01:18:37.026Z,0
2017-07-01T01:19:37.009Z,0
2017-07-01T01:20:37.045Z,0
2017-07-01T01:21:37.141Z,0
2017-07-01T01:22:37.034Z,0
2017-07-01T01:23:37.203Z,0
2017-07-01T01:24:37.115Z,0
2017-07-01T01:25:37.230Z,0
2017-07-01T01:26:37.164Z,0
2017-07-01T01:27:37.269Z,0
2017-07-01T01:28:37.362Z,0
2017-07-01T01:29:37.301Z,0
2017-07-01T01:30:37.340Z,0
2017-07-01T01:31:37.378Z,0
2017-07-01T01:32:37.496Z,0
2017-07-01T01:33:37.480Z,0
2017-07-01T01:34:37.446Z,0
2017-07-01T01:35:37.501Z,0
2017-07-01T01:36:37.532Z,0
2017-07-01T01:37:37.551Z,0
2017-07-01T01:38:37.577Z,0
2017-07-01T01:39:37.622Z,0
2017-07-01T01:40:37.705Z,0
2017-07-01T01:41:37.864Z,0
2017-07-01T01:42:37.698Z,0
2017-07-01T01:43:37.764Z,0
2017-07-01T01:44:37.778Z,0
2017-07-01T01:45:37.824Z,0
2017-07-01T01:46:37.861Z,0
2017-07-01T01:47:37.893Z,0
2017-07-01T01:48:37.946Z,0
2017-07-01T01:49:38.080Z,0
2017-07-01T01:50:37.968Z,0
2017-07-01T01:51:38.041Z,0
2017-07-01T01:52:38.044Z,0
2017-07-01T01:53:38.075Z,0
2017-07-01T01:54:38.172Z,0
2017-07-01T01:55:38.343Z,0
2017-07-01T01:56:38.196Z,0
2017-07-01T01:57:38.215Z,0
2017-07-01T01:58:38.241Z,0
2017-07-01T01:59:38.294Z,0
2017-07-01T02:00:38.540Z,0
2017-07-01T02:01:38.621Z,0
2017-07-01T02:02:38.391Z,0
2017-07-01T02:03:38.452Z,0
2017-07-01T02:04:38.446Z,0
2017-07-01T02:05:38.814Z,0
2017-07-01T02:06:38.544Z,0
2017-07-01T02:07:38.547Z,0
2017-07-01T02:08:38.658Z,0
2017-07-01T02:09:38.599Z,0
2017-07-01T02:10:38.647Z,0
2017-07-01T02:11:38.708Z,0
2017-07-01T02:12:38.725Z,0
2017-07-01T02:13:38.738Z,0
2017-07-01T02:14:38.793Z,0
2017-07-01T02:15:38.814Z,0
2017-07-01T02:16:38.914Z,0
2017-07-01T02:17:38.980Z,0
2017-07-01T02:18:39.975Z,0
2017-07-01T02:19:38.962Z,4
2017-07-01T02:20:39.082Z,4
2017-07-01T02:21:39.226Z,4
2017-07-01T02:22:39.078Z,0
2017-07-01T02:23:39.186Z,4
2017-07-01T02:24:39.404Z,4
2017-07-01T02:25:39.184Z,4
2017-07-01T02:26:39.188Z,4
2017-07-01T02:27:39.314Z,4
2017-07-01T02:28:39.253Z,4
2017-07-01T02:29:39.343Z,4
2017-07-01T02:30:39.382Z,4
2017-07-01T02:31:39.462Z,8
2017-07-01T02:32:39.434Z,8
2017-07-01T02:33:39.531Z,8
2017-07-01T02:34:39.479Z,8
2017-07-01T02:35:39.486Z,12
2017-07-01T02:36:39.527Z,8
2017-07-01T02:37:39.648Z,16
2017-07-01T02:38:39.592Z,12
2017-07-01T02:39:39.628Z,16
2017-07-01T02:40:39.887Z,16
2017-07-01T02:41:39.821Z,16
2017-07-01T02:42:39.734Z,20
2017-07-01T02:43:39.767Z,20
2017-07-01T02:44:39.762Z,24
2017-07-01T02:45:39.887Z,24
2017-07-01T02:46:39.925Z,28
2017-07-01T02:47:39.978Z,36
2017-07-01T02:48:40.125Z,32
2017-07-01T02:49:39.963Z,36
2017-07-01T02:50:39.995Z,32
2017-07-01T02:51:40.269Z,44
2017-07-01T02:52:40.068Z,48
2017-07-01T02:53:40.202Z,52
2017-07-01T02:54:40.129Z,52
2017-07-01T02:55:40.125Z,56
2017-07-01T02:56:40.342Z,56
2017-07-01T02:57:40.227Z,60
2017-07-01T02:58:40.260Z,56
2017-07-01T02:59:40.358Z,56
2017-07-01T03:00:40.338Z,56
2017-07-01T03:01:40.610Z,56
2017-07-01T03:02:40.393Z,60
2017-07-01T03:03:40.414Z,64
2017-07-01T03:04:40.596Z,68
2017-07-01T03:05:40.503Z,72
2017-07-01T03:06:40.581Z,80
2017-07-01T03:07:40.524Z,84
2017-07-01T03:08:40.628Z,92
2017-07-01T03:09:40.728Z,100
2017-07-01T03:10:40.657Z,100
2017-07-01T03:11:40.752Z,100
2017-07-01T03:12:40.746Z,92
2017-07-01T03:13:40.792Z,96
2017-07-01T03:14:40.827Z,104
2017-07-01T03:15:40.846Z,112
2017-07-01T03:16:40.882Z,120
2017-07-01T03:17:40.901Z,124
2017-07-01T03:18:40.930Z,124
2017-07-01T03:19:40.954Z,116
2017-07-01T03:20:41.305Z,112
2017-07-01T03:21:41.032Z,104
2017-07-01T03:22:41.183Z,104
2017-07-01T03:23:41.125Z,104
2017-07-01T03:24:41.116Z,104
2017-07-01T03:25:41.166Z,108
2017-07-01T03:26:41.192Z,120
2017-07-01T03:27:41.293Z,140
2017-07-01T03:28:41.295Z,156
2017-07-01T03:29:41.286Z,160
2017-07-01T03:30:41.331Z,156
2017-07-01T03:31:41.362Z,164
2017-07-01T03:32:41.371Z,184
2017-07-01T03:33:41.438Z,208
2017-07-01T03:34:41.465Z,216
2017-07-01T03:35:41.579Z,240
2017-07-01T03:36:41.610Z,280
2017-07-01T03:37:41.720Z,300
2017-07-01T03:38:41.590Z,296
2017-07-01T03:39:41.627Z,308
2017-07-01T03:40:41.669Z,300
2017-07-01T03:41:41.701Z,288
2017-07-01T03:42:41.981Z,300
2017-07-01T03:43:41.771Z,312
2017-07-01T03:44:41.797Z,324
2017-07-01T03:45:41.834Z,324
2017-07-01T03:46:41.873Z,324
2017-07-01T03:47:42.037Z,340
2017-07-01T03:48:41.938Z,376
2017-07-01T03:49:42.023Z,432
2017-07-01T03:50:42.007Z,528
2017-07-01T03:51:42.029Z,648
2017-07-01T03:52:42.185Z,748
2017-07-01T03:53:42.103Z,824
2017-07-01T03:54:42.137Z,876
2017-07-01T03:55:42.154Z,896
2017-07-01T03:56:42.187Z,932
2017-07-01T03:57:42.334Z,992
2017-07-01T03:58:42.371Z,1116
2017-07-01T03:59:42.429Z,1224
2017-07-01T04:00:42.392Z,1216
2017-07-01T04:01:42.407Z,1144
2017-07-01T04:02:42.438Z,1084
2017-07-01T04:03:42.447Z,1088
2017-07-01T04:04:42.491Z,1032
2017-07-01T04:05:42.555Z,952
2017-07-01T04:06:42.570Z,888
2017-07-01T04:07:42.617Z,864
2017-07-01T04:08:42.661Z,840
2017-07-01T04:09:42.670Z,836
2017-07-01T04:10:42.696Z,760
2017-07-01T04:11:42.731Z,684
2017-07-01T04:12:42.845Z,656
2017-07-01T04:13:42.839Z,660
2017-07-01T04:14:42.841Z,652
2017-07-01T04:15:42.868Z,588
2017-07-01T04:16:42.911Z,660
2017-07-01T04:17:42.963Z,764
2017-07-01T04:18:42.985Z,844
2017-07-01T04:19:43.047Z,852
2017-07-01T04:20:43.097Z,752
2017-07-01T04:21:43.049Z,680
2017-07-01T04:22:43.101Z,668
2017-07-01T04:23:43.232Z,684
2017-07-01T04:24:43.202Z,732
2017-07-01T04:25:43.229Z,704
2017-07-01T04:26:43.331Z,704
2017-07-01T04:27:43.320Z,696
2017-07-01T04:28:43.389Z,716
2017-07-01T04:29:43.413Z,708
2017-07-01T04:30:43.426Z,804
2017-07-01T04:31:43.380Z,900
2017-07-01T04:32:43.492Z,892
2017-07-01T04:33:43.595Z,920
2017-07-01T04:34:43.516Z,980
2017-07-01T04:35:43.602Z,1068
2017-07-01T04:36:43.607Z,1132
2017-07-01T04:37:43.608Z,1104
2017-07-01T04:38:43.757Z,1088
2017-07-01T04:39:43.733Z,1176
2017-07-01T04:40:43.739Z,1344
2017-07-01T04:41:43.746Z,1440
2017-07-01T04:42:43.756Z,1468
2017-07-01T04:43:44.075Z,1480
2017-07-01T04:44:43.849Z,1372
2017-07-01T04:45:43.927Z,1232
2017-07-01T04:46:43.940Z,1204
2017-07-01T04:47:43.997Z,1396
2017-07-01T04:48:44.011Z,1604
2017-07-01T04:49:44.003Z,1908
2017-07-01T04:50:44.074Z,2332
2017-07-01T04:51:44.136Z,2652
2017-07-01T04:52:44.138Z,2944
2017-07-01T04:53:44.156Z,3144
2017-07-01T04:54:44.178Z,3556
2017-07-01T04:55:44.247Z,3772
2017-07-01T04:56:44.280Z,3412
2017-07-01T04:57:44.278Z,2960
2017-07-01T04:58:44.370Z,2672
2017-07-01T04:59:44.343Z,2624
2017-07-01T05:00:44.438Z,2572
2017-07-01T05:01:44.854Z,2548
2017-07-01T05:02:45.219Z,2420
2017-07-01T05:03:44.546Z,2716
2017-07-01T05:04:44.510Z,2800
2017-07-01T05:05:44.640Z,3044
2017-07-01T05:06:44.678Z,3632
2017-07-01T05:07:44.640Z,4136
2017-07-01T05:08:44.660Z,4076
2017-07-01T05:09:44.731Z,3448
2017-07-01T05:10:44.745Z,2736
2017-07-01T05:11:44.786Z,2124
2017-07-01T05:12:44.850Z,1732
2017-07-01T05:13:44.852Z,1648
2017-07-01T05:14:44.842Z,1504
2017-07-01T05:15:44.941Z,1240
2017-07-01T05:16:44.895Z,1056
2017-07-01T05:17:45.041Z,980
2017-07-01T05:18:45.044Z,896
2017-07-01T05:19:45.030Z,680
2017-07-01T05:20:45.030Z,636
2017-07-01T05:21:45.146Z,728
2017-07-01T05:22:45.155Z,832
2017-07-01T05:23:45.188Z,1012
2017-07-01T05:24:45.480Z,1096
2017-07-01T05:25:45.280Z,1152
2017-07-01T05:26:45.271Z,1248
2017-07-01T05:27:45.331Z,1348
2017-07-01T05:28:45.343Z,1352
2017-07-01T05:29:45.495Z,1364
2017-07-01T05:30:45.426Z,1580
2017-07-01T05:31:45.455Z,1796
2017-07-01T05:32:45.444Z,2004
2017-07-01T05:33:45.538Z,2208
2017-07-01T05:34:45.685Z,2224
2017-07-01T05:35:45.596Z,2188
2017-07-01T05:36:45.581Z,2340
2017-07-01T05:37:45.669Z,2680
2017-07-01T05:38:45.739Z,2848
2017-07-01T05:39:45.882Z,2996
2017-07-01T05:40:45.735Z,3260
2017-07-01T05:41:45.808Z,3580
2017-07-01T05:42:45.814Z,3756
2017-07-01T05:43:45.882Z,3744
2017-07-01T05:44:45.886Z,3540
2017-07-01T05:45:45.922Z,3196
2017-07-01T05:46:45.977Z,2872
2017-07-01T05:47:46.038Z,2872
2017-07-01T05:48:46.018Z,2732
2017-07-01T05:49:46.121Z,2708
2017-07-01T05:50:46.144Z,2428
2017-07-01T05:51:46.140Z,2360
2017-07-01T05:52:46.148Z,2164
2017-07-01T05:53:46.247Z,1820
2017-07-01T05:54:46.252Z,1432
2017-07-01T05:55:46.277Z,1076
2017-07-01T05:56:46.318Z,848
2017-07-01T05:57:46.346Z,768
2017-07-01T05:58:46.391Z,884
2017-07-01T05:59:46.445Z,1104
2017-07-01T06:00:46.454Z,1296
2017-07-01T06:01:46.484Z,1516
2017-07-01T06:02:46.487Z,1788
2017-07-01T06:03:46.502Z,2012
2017-07-01T06:04:46.541Z,2488
2017-07-01T06:05:46.615Z,2712
2017-07-01T06:06:46.662Z,3164
2017-07-01T06:07:46.691Z,3572
2017-07-01T06:08:46.798Z,3592
2017-07-01T06:09:46.767Z,3700
2017-07-01T06:10:46.848Z,4096
2017-07-01T06:11:46.840Z,4392
2017-07-01T06:12:46.806Z,4548
2017-07-01T06:13:46.907Z,4756
2017-07-01T06:14:46.951Z,4512
2017-07-01T06:15:47.240Z,3804
2017-07-01T06:16:47.782Z,3204
2017-07-01T06:17:47.022Z,3144
2017-07-01T06:18:47.031Z,3268
2017-07-01T06:19:47.154Z,3492
2017-07-01T06:20:47.261Z,3584
2017-07-01T06:21:47.169Z,4144
2017-07-01T06:22:47.203Z,4784
2017-07-01T06:23:47.240Z,5196
2017-07-01T06:24:47.252Z,5352
2017-07-01T06:25:47.438Z,5396
2017-07-01T06:26:47.309Z,5744
2017-07-01T06:27:47.385Z,6012
2017-07-01T06:28:47.418Z,6708
2017-07-01T06:29:47.431Z,6788
2017-07-01T06:30:47.489Z,5688
2017-07-01T06:31:47.514Z,4340
2017-07-01T06:32:47.555Z,3240
2017-07-01T06:33:47.566Z,2816
2017-07-01T06:34:47.636Z,3288
2017-07-01T06:35:47.661Z,4808
2017-07-01T06:36:47.670Z,6044
2017-07-01T06:37:47.737Z,7164
2017-07-01T06:38:47.749Z,7836
2017-07-01T06:39:47.838Z,8436
2017-07-01T06:40:47.817Z,9252
2017-07-01T06:41:47.896Z,9828
2017-07-01T06:42:47.849Z,9696
2017-07-01T06:43:47.936Z,9464
2017-07-01T06:44:47.941Z,8900
2017-07-01T06:45:47.988Z,9168
2017-07-01T06:46:48.099Z,9196
2017-07-01T06:47:48.069Z,9924
2017-07-01T06:48:48.135Z,10812
2017-07-01T06:49:48.154Z,9812
2017-07-01T06:50:48.197Z,7028
2017-07-01T06:51:48.298Z,5192
2017-07-01T06:52:48.245Z,4372
2017-07-01T06:53:48.252Z,3860
2017-07-01T06:54:48.363Z,3244
2017-07-01T06:55:48.367Z,3136
2017-07-01T06:56:48.454Z,2804
2017-07-01T06:57:48.456Z,2536
2017-07-01T06:58:48.453Z,2704
2017-07-01T06:59:48.512Z,2608
2017-07-01T07:00:48.552Z,2484
2017-07-01T07:01:48.561Z,2772
2017-07-01T07:02:48.619Z,3080
2017-07-01T07:03:48.659Z,2916
2017-07-01T07:04:48.725Z,2824
2017-07-01T07:05:48.725Z,2928
2017-07-01T07:06:48.716Z,3520
2017-07-01T07:07:48.848Z,4284
2017-07-01T07:08:48.840Z,5156
2017-07-01T07:09:48.872Z,5808
2017-07-01T07:10:48.932Z,6048
2017-07-01T07:11:48.935Z,6672
2017-07-01T07:12:48.971Z,7028
2017-07-01T07:13:48.972Z,7096
2017-07-01T07:14:49.065Z,7620
2017-07-01T07:15:49.056Z,8144
2017-07-01T07:16:49.143Z,8908
2017-07-01T07:17:49.158Z,8996
2017-07-01T07:18:49.164Z,8524
2017-07-01T07:19:49.167Z,8008
2017-07-01T07:20:49.235Z,7308
2017-07-01T07:21:49.302Z,6620
2017-07-01T07:22:49.302Z,6824
2017-07-01T07:23:49.363Z,7476
2017-07-01T07:24:49.429Z,7912
2017-07-01T07:25:49.439Z,7744
2017-07-01T07:26:49.505Z,7268
2017-07-01T07:27:49.545Z,7436
2017-07-01T07:28:49.551Z,7780
2017-07-01T07:29:49.575Z,8384
2017-07-01T07:30:49.588Z,8572
2017-07-01T07:31:49.606Z,9164
2017-07-01T07:32:49.679Z,9140
2017-07-01T07:33:49.732Z,8200
2017-07-01T07:34:49.767Z,6972
2017-07-01T07:35:49.811Z,6584
2017-07-01T07:36:49.811Z,6288
2017-07-01T07:37:49.814Z,6132
2017-07-01T07:38:49.963Z,6048
2017-07-01T07:39:49.927Z,6276
2017-07-01T07:40:49.977Z,6060
2017-07-01T07:41:49.996Z,6152
2017-07-01T07:42:50.056Z,6740
2017-07-01T07:43:50.069Z,7328
2017-07-01T07:44:50.163Z,8052
2017-07-01T07:45:50.172Z,9124
2017-07-01T07:46:50.158Z,10496
2017-07-01T07:47:50.269Z,10760
2017-07-01T07:48:50.257Z,10936
2017-07-01T07:49:50.368Z,10664
2017-07-01T07:50:50.320Z,10344
2017-07-01T07:51:50.429Z,9968
2017-07-01T07:52:50.476Z,9608
2017-07-01T07:53:50.428Z,9144
2017-07-01T07:54:50.512Z,9292
2017-07-01T07:55:50.475Z,9940
2017-07-01T07:56:50.562Z,10408
2017-07-01T07:57:50.651Z,11248
2017-07-01T07:58:50.670Z,12100
2017-07-01T07:59:50.760Z,13008
2017-07-01T08:00:50.719Z,13520
2017-07-01T08:01:50.741Z,14480
2017-07-01T08:02:50.790Z,16448
2017-07-01T08:03:50.833Z,17600
2017-07-01T08:04:51.212Z,17760
2017-07-01T08:05:51.001Z,16128
2017-07-01T08:06:50.938Z,15488
2017-07-01T08:07:50.971Z,14504
2017-07-01T08:08:51.020Z,13900
2017-07-01T08:09:51.043Z,13164
2017-07-01T08:10:51.052Z,12760
2017-07-01T08:11:51.121Z,13228
2017-07-01T08:12:51.156Z,12764
2017-07-01T08:13:51.164Z,12532
2017-07-01T08:14:51.300Z,13180
2017-07-01T08:15:51.211Z,11588
2017-07-01T08:16:51.315Z,17888
2017-07-01T08:17:51.309Z,31808
2017-07-01T08:18:51.357Z,34560
2017-07-01T08:19:51.437Z,22816
2017-07-01T08:20:51.422Z,21824
2017-07-01T08:21:51.473Z,16704
2017-07-01T08:22:51.537Z,17664
2017-07-01T08:23:51.568Z,13432
2017-07-01T08:24:51.670Z,11616
2017-07-01T08:25:51.610Z,10980
2017-07-01T08:26:51.651Z,9412
2017-07-01T08:27:51.701Z,9760
2017-07-01T08:28:51.716Z,9352
2017-07-01T08:29:51.823Z,11324
2017-07-01T08:30:51.853Z,12004
2017-07-01T08:31:51.833Z,11096
2017-07-01T08:32:51.975Z,12640
2017-07-01T08:33:51.970Z,14320
2017-07-01T08:34:52.048Z,11108
2017-07-01T08:35:52.047Z,15188
2017-07-01T08:36:52.082Z,14696
2017-07-01T08:37:52.584Z,12280
2017-07-01T08:38:52.174Z,8652
2017-07-01T08:39:52.172Z,6932
2017-07-01T08:40:52.203Z,7244
2017-07-01T08:41:52.265Z,42400
2017-07-01T08:42:52.330Z,44288
2017-07-01T08:43:52.373Z,42816
2017-07-01T08:44:52.427Z,13236
2017-07-01T08:45:52.426Z,9032
2017-07-01T08:46:52.452Z,10132
2017-07-01T08:47:53.170Z,43584
2017-07-01T08:48:52.993Z,55232
2017-07-01T08:49:52.838Z,52192
2017-07-01T08:50:52.973Z,51008
2017-07-01T08:51:52.622Z,53088
2017-07-01T08:52:52.692Z,48672
2017-07-01T08:53:52.697Z,35072
2017-07-01T08:54:52.785Z,31136
2017-07-01T08:55:52.980Z,20640
2017-07-01T08:56:52.819Z,16160
2017-07-01T08:57:52.910Z,25088
2017-07-01T08:58:52.963Z,23232
2017-07-01T08:59:52.918Z,22048
2017-07-01T09:00:53.158Z,15808
2017-07-01T09:01:53.071Z,14380
2017-07-01T09:02:53.064Z,13544
2017-07-01T09:03:53.147Z,13156
2017-07-01T09:04:53.193Z,13092
2017-07-01T09:05:53.377Z,13560
2017-07-01T09:06:53.306Z,11892
2017-07-01T09:07:53.279Z,12092
2017-07-01T09:08:53.371Z,12320
2017-07-01T09:09:53.403Z,12292
2017-07-01T09:10:53.384Z,11080
2017-07-01T09:11:53.473Z,11580
2017-07-01T09:12:53.505Z,12212
2017-07-01T09:13:53.567Z,11940
2017-07-01T09:14:53.960Z,12884
2017-07-01T09:15:53.558Z,13532
2017-07-01T09:16:53.641Z,14232
2017-07-01T09:17:53.697Z,13320
2017-07-01T09:18:53.711Z,12380
2017-07-01T09:19:53.786Z,11132
2017-07-01T09:20:53.871Z,11464
2017-07-01T09:21:53.831Z,11420
2017-07-01T09:22:53.921Z,11032
2017-07-01T09:23:53.950Z,12164
2017-07-01T09:24:53.983Z,12744
2017-07-01T09:25:54.062Z,14820
2017-07-01T09:26:54.026Z,14084
2017-07-01T09:27:54.077Z,12184
2017-07-01T09:28:54.349Z,10788
2017-07-01T09:29:54.147Z,9836
2017-07-01T09:30:54.195Z,8512
2017-07-01T09:31:54.267Z,7428
2017-07-01T09:32:54.280Z,6160
2017-07-01T09:33:54.319Z,5076
2017-07-01T09:34:54.378Z,5064
2017-07-01T09:35:54.477Z,5136
2017-07-01T09:36:54.428Z,4876
2017-07-01T09:37:54.486Z,4140
2017-07-01T09:38:54.486Z,3384
2017-07-01T09:39:54.554Z,3016
2017-07-01T09:40:54.571Z,2572
2017-07-01T09:41:54.665Z,1856
2017-07-01T09:42:54.668Z,1468
2017-07-01T09:43:54.676Z,1524
2017-07-01T09:44:54.779Z,1492
2017-07-01T09:45:54.766Z,1956
2017-07-01T09:46:54.864Z,1972
2017-07-01T09:47:54.872Z,1832
2017-07-01T09:48:54.924Z,1704
2017-07-01T09:49:54.909Z,2284
2017-07-01T09:50:54.980Z,2380
2017-07-01T09:51:54.953Z,2560
2017-07-01T09:52:55.035Z,3024
2017-07-01T09:53:55.054Z,3276
2017-07-01T09:54:55.091Z,3296
2017-07-01T09:55:55.171Z,3260
2017-07-01T09:56:55.170Z,3420
2017-07-01T09:57:55.206Z,3804
2017-07-01T09:58:55.254Z,3720
2017-07-01T09:59:55.301Z,3092
2017-07-01T10:00:55.341Z,3224
2017-07-01T10:01:55.358Z,3448
2017-07-01T10:02:55.441Z,3436
2017-07-01T10:03:55.420Z,2900
2017-07-01T10:04:55.473Z,2800
2017-07-01T10:05:55.557Z,2512
2017-07-01T10:06:55.739Z,2760
2017-07-01T10:07:55.861Z,2708
2017-07-01T10:08:55.652Z,2460
2017-07-01T10:09:55.664Z,1840
2017-07-01T10:10:55.711Z,1372
2017-07-01T10:11:55.718Z,1184
2017-07-01T10:12:55.894Z,1556
2017-07-01T10:13:55.815Z,1236
2017-07-01T10:14:56.359Z,1064
2017-07-01T10:15:55.885Z,720
2017-07-01T10:16:55.907Z,840
2017-07-01T10:17:55.974Z,1060
2017-07-01T10:18:55.961Z,2204
2017-07-01T10:19:56.023Z,3420
2017-07-01T10:20:56.059Z,4120
2017-07-01T10:21:56.062Z,4708
2017-07-01T10:22:56.146Z,4764
2017-07-01T10:23:56.150Z,4784
2017-07-01T10:24:56.205Z,5148
2017-07-01T10:25:56.233Z,5388
2017-07-01T10:26:56.239Z,5772
2017-07-01T10:27:56.313Z,5988
2017-07-01T10:28:56.317Z,6380
2017-07-01T10:29:56.356Z,6672
2017-07-01T10:30:56.442Z,6724
2017-07-01T10:31:56.421Z,7136
2017-07-01T10:32:56.458Z,7508
2017-07-01T10:33:56.528Z,7808
2017-07-01T10:34:56.578Z,8256
2017-07-01T10:35:56.565Z,8392
2017-07-01T10:36:56.628Z,8548
2017-07-01T10:37:56.718Z,8660
2017-07-01T10:38:56.671Z,8676
2017-07-01T10:39:56.734Z,8064
2017-07-01T10:40:56.768Z,7428
2017-07-01T10:41:56.851Z,7552
2017-07-01T10:42:56.872Z,7664
2017-07-01T10:43:56.874Z,7432
2017-07-01T10:44:56.857Z,7572
2017-07-01T10:45:56.969Z,7724
2017-07-01T10:46:56.961Z,7892
2017-07-01T10:47:57.016Z,8264
2017-07-01T10:48:57.076Z,8236
2017-07-01T10:49:57.073Z,8168
2017-07-01T10:50:57.114Z,8428
2017-07-01T10:51:57.107Z,8772
2017-07-01T10:52:57.205Z,9260
2017-07-01T10:53:57.267Z,9592
2017-07-01T10:54:57.246Z,9924
2017-07-01T10:55:57.255Z,10792
2017-07-01T10:56:57.370Z,11016
2017-07-01T10:57:57.412Z,11036
2017-07-01T10:58:57.367Z,10604
2017-07-01T10:59:57.444Z,9028
2017-07-01T11:00:57.472Z,10024
2017-07-01T11:01:57.522Z,11340
2017-07-01T11:02:57.558Z,11648
2017-07-01T11:03:57.625Z,11716
2017-07-01T11:04:57.647Z,11948
2017-07-01T11:05:57.662Z,11772
2017-07-01T11:06:57.665Z,11848
2017-07-01T11:07:57.770Z,12320
2017-07-01T11:08:57.810Z,12892
2017-07-01T11:09:57.846Z,13236
2017-07-01T11:10:57.860Z,13380
2017-07-01T11:11:57.912Z,13592
2017-07-01T11:12:57.912Z,13280
2017-07-01T11:13:57.917Z,12488
2017-07-01T11:14:58.032Z,12260
2017-07-01T11:15:58.057Z,12228
2017-07-01T11:16:58.056Z,11712
2017-07-01T11:17:58.060Z,11200
2017-07-01T11:18:58.122Z,11296
2017-07-01T11:19:58.161Z,11332
2017-07-01T11:20:58.157Z,11568
2017-07-01T11:21:58.231Z,11956
2017-07-01T11:22:58.315Z,12056
2017-07-01T11:23:58.366Z,11812
2017-07-01T11:24:58.333Z,12164
2017-07-01T11:25:58.475Z,12808
2017-07-01T11:26:58.454Z,12956
2017-07-01T11:27:58.495Z,12880
2017-07-01T11:28:58.533Z,12656
2017-07-01T11:29:58.508Z,12520
2017-07-01T11:30:58.595Z,12400
2017-07-01T11:31:58.657Z,12320
2017-07-01T11:32:58.650Z,12616
2017-07-01T11:33:58.687Z,13212
2017-07-01T11:34:58.724Z,13356
2017-07-01T11:35:58.819Z,13644
2017-07-01T11:36:58.832Z,14236
2017-07-01T11:37:58.868Z,14688
2017-07-01T11:38:58.879Z,14804
2017-07-01T11:39:58.959Z,14520
2017-07-01T11:40:59.054Z,13976
2017-07-01T11:41:58.985Z,13696
2017-07-01T11:42:59.066Z,13340
2017-07-01T11:43:59.066Z,13204
2017-07-01T11:44:59.136Z,12968
2017-07-01T11:45:59.110Z,12512
2017-07-01T11:46:59.217Z,12324
2017-07-01T11:47:59.219Z,12224
2017-07-01T11:48:59.302Z,12068
2017-07-01T11:49:59.361Z,12620
2017-07-01T11:50:59.358Z,12972
2017-07-01T11:51:59.353Z,13140
2017-07-01T11:52:59.438Z,13368
2017-07-01T11:53:59.442Z,12412
2017-07-01T11:54:59.481Z,13196
2017-07-01T11:55:59.555Z,13540
2017-07-01T11:56:59.602Z,13388
2017-07-01T11:57:59.632Z,13092
2017-07-01T11:58:59.632Z,12988
2017-07-01T11:59:59.723Z,12580
2017-07-01T12:00:59.745Z,11740
2017-07-01T12:01:59.752Z,10684
2017-07-01T12:02:59.803Z,10332
2017-07-01T12:03:59.858Z,10480
2017-07-01T12:04:59.854Z,10504
2017-07-01T12:05:59.926Z,10860
2017-07-01T12:06:59.965Z,10712
2017-07-01T12:07:59.991Z,10252
2017-07-01T12:09:00.046Z,9512
2017-07-01T12:10:00.099Z,7956
2017-07-01T12:11:00.140Z,7764
2017-07-01T12:12:00.163Z,8512
2017-07-01T12:13:00.196Z,6200
2017-07-01T12:14:00.238Z,6800
2017-07-01T12:15:00.261Z,6048
2017-07-01T12:16:00.283Z,3832
2017-07-01T12:17:00.370Z,3508
2017-07-01T12:18:00.365Z,3700
2017-07-01T12:19:00.358Z,2796
2017-07-01T12:20:00.437Z,2492
2017-07-01T12:21:00.493Z,2688
2017-07-01T12:22:00.572Z,2556
2017-07-01T12:23:00.568Z,1952
2017-07-01T12:24:00.597Z,2204
2017-07-01T12:25:00.625Z,2012
2017-07-01T12:26:00.639Z,2660
2017-07-01T12:27:00.741Z,2440
2017-07-01T12:28:00.734Z,3148
2017-07-01T12:29:00.796Z,3976
2017-07-01T12:30:00.834Z,3512
2017-07-01T12:31:00.874Z,3148
2017-07-01T12:32:00.942Z,2160
2017-07-01T12:33:00.936Z,1884
2017-07-01T12:34:00.943Z,2108
2017-07-01T12:35:01.008Z,3236
2017-07-01T12:36:01.055Z,3468
2017-07-01T12:37:01.090Z,3960
2017-07-01T12:38:01.124Z,3828
2017-07-01T12:39:01.123Z,3924
2017-07-01T12:40:01.203Z,4244
2017-07-01T12:41:01.217Z,5032
2017-07-01T12:42:01.232Z,5516
2017-07-01T12:43:01.323Z,5796
2017-07-01T12:44:01.337Z,5608
2017-07-01T12:45:01.347Z,5140
2017-07-01T12:46:01.402Z,5416
2017-07-01T12:47:01.440Z,5536
2017-07-01T12:48:01.481Z,6344
2017-07-01T12:49:01.516Z,6676
2017-07-01T12:50:01.563Z,6488
2017-07-01T12:51:01.590Z,6312
2017-07-01T12:52:01.583Z,6080
2017-07-01T12:53:01.631Z,6004
2017-07-01T12:54:01.703Z,6308
2017-07-01T12:55:01.758Z,6720
2017-07-01T12:56:01.767Z,6568
2017-07-01T12:57:01.763Z,6796
2017-07-01T12:58:01.842Z,6960
2017-07-01T12:59:01.843Z,7192
2017-07-01T13:00:01.894Z,8368
2017-07-01T13:01:01.947Z,9856
2017-07-01T13:02:01.998Z,10772
2017-07-01T13:03:02.027Z,11236
2017-07-01T13:04:02.102Z,11220
2017-07-01T13:05:02.104Z,11232
2017-07-01T13:06:02.179Z,10948
2017-07-01T13:07:02.177Z,10972
2017-07-01T13:08:02.209Z,11236
2017-07-01T13:09:02.230Z,10432
2017-07-01T13:10:02.278Z,10656
2017-07-01T13:11:02.296Z,11988
2017-07-01T13:12:02.345Z,12252
2017-07-01T13:13:02.432Z,11892
2017-07-01T13:14:02.403Z,10800
2017-07-01T13:15:02.466Z,10320
2017-07-01T13:16:04.741Z,10508
2017-07-01T13:17:02.537Z,10696
2017-07-01T13:18:02.584Z,10500
2017-07-01T13:19:02.622Z,10764
2017-07-01T13:20:02.640Z,10356
2017-07-01T13:21:02.651Z,9892
2017-07-01T13:22:02.720Z,9504
2017-07-01T13:23:02.777Z,9844
2017-07-01T13:24:02.823Z,10316
2017-07-01T13:25:03.095Z,10068
2017-07-01T13:26:02.879Z,10396
2017-07-01T13:27:02.944Z,9688
2017-07-01T13:28:02.959Z,9388
2017-07-01T13:29:02.993Z,9988
2017-07-01T13:30:03.052Z,9540
2017-07-01T13:31:03.085Z,10648
2017-07-01T13:32:03.129Z,8648
2017-07-01T13:33:03.189Z,6576
2017-07-01T13:34:03.355Z,4820